createdAt,value
2022-12-27T16:09:19.223Z,100.00
2022-12-27T16:10:33.562Z,100.00
2022-12-27T16:12:02.228Z,100.00
2022-12-27T16:13:12.917Z,100.00
2022-12-27T16:14:29.086Z,100.00
2022-12-27T16:15:54.440Z,100.00
2022-12-27T16:17:07.235Z,100.00
2022-12-27T16:18:31.603Z,100.00
2022-12-27T16:19:41.427Z,100.00
2022-12-27T16:20:55.335Z,100.00
2022-12-27T16:22:55.202Z,100.00
2022-12-27T16:24:14.165Z,100.00
2022-12-27T16:25:18.975Z,100.00
2022-12-27T16:26:25.272Z,100.00
2022-12-27T16:27:33.010Z,99.05
2022-12-27T16:28:37.292Z,96.08
2022-12-27T16:29:44.640Z,86.28
2022-12-27T16:30:50.010Z,85.83
2022-12-27T16:32:11.200Z,83.87
2022-12-27T16:33:34.948Z,80.30
2022-12-27T16:34:36.605Z,76.89
2022-12-27T16:35:38.505Z,75.09
2022-12-27T16:36:48.220Z,72.65
2022-12-27T16:37:54.948Z,70.74
2022-12-27T16:39:14.628Z,68.57
2022-12-27T16:40:44.859Z,64.38
2022-12-27T16:41:58.515Z,64.14
2022-12-27T16:43:09.210Z,63.33
2022-12-27T16:44:26.340Z,61.88
2022-12-27T16:45:49.591Z,61.15
2022-12-27T16:47:09.792Z,60.71
2022-12-27T16:48:34.662Z,59.38
2022-12-27T16:50:00.371Z,59.05
2022-12-27T16:51:16.939Z,57.99
2022-12-27T16:52:47.370Z,57.21
2022-12-27T16:54:00.522Z,57.17
2022-12-27T16:55:23.235Z,55.78
2022-12-27T16:56:28.533Z,56.61
2022-12-27T16:57:41.545Z,55.91
2022-12-27T16:58:43.635Z,54.96
2022-12-27T17:00:04.129Z,55.39
2022-12-27T17:01:26.920Z,54.76
2022-12-27T17:02:40.982Z,54.91
2022-12-27T17:03:45.063Z,55.00
2022-12-27T17:04:50.393Z,54.86
2022-12-27T17:06:30.778Z,54.72
2022-12-27T17:07:37.096Z,54.29
2022-12-27T17:08:38.928Z,53.50
2022-12-27T17:09:41.931Z,54.14
2022-12-27T17:10:55.292Z,54.15
2022-12-27T17:11:56.924Z,53.93
2022-12-27T17:13:13.426Z,53.50
2022-12-27T17:14:25.359Z,53.48
2022-12-27T17:15:29.274Z,53.41
2022-12-27T17:16:48.197Z,53.38
2022-12-27T17:17:58.939Z,53.21
2022-12-27T17:19:05.158Z,53.18
2022-12-27T17:20:16.616Z,53.49
2022-12-27T17:21:30.527Z,53.34
2022-12-27T17:22:35.882Z,53.48
2022-12-27T17:23:40.407Z,53.20
2022-12-27T17:24:45.362Z,53.36
2022-12-27T17:25:58.879Z,53.27
2022-12-27T17:27:15.708Z,52.88
2022-12-27T17:28:30.645Z,52.87
2022-12-27T17:30:09.972Z,52.75
2022-12-27T17:31:22.712Z,52.69
2022-12-27T17:32:58.371Z,52.42
2022-12-27T17:34:11.328Z,52.68
2022-12-27T17:35:12.974Z,53.12
2022-12-27T17:36:34.844Z,53.15
2022-12-27T17:38:05.150Z,53.29
2022-12-27T17:39:24.978Z,53.51
2022-12-27T17:40:35.532Z,53.36
2022-12-27T17:42:14.792Z,52.93
2022-12-27T17:43:38.003Z,53.35
2022-12-27T17:44:56.081Z,53.32
2022-12-27T17:46:17.861Z,53.61
2022-12-27T17:48:00.053Z,53.43
2022-12-27T17:49:02.161Z,53.33
2022-12-27T17:50:11.591Z,53.36
2022-12-27T17:51:18.712Z,53.23
2022-12-27T17:52:44.050Z,53.03
2022-12-27T17:54:06.490Z,52.87
2022-12-27T17:55:43.163Z,52.51
2022-12-27T17:57:04.582Z,52.36
2022-12-27T17:58:16.150Z,51.83
2022-12-27T17:59:25.707Z,51.60
2022-12-27T18:00:31.448Z,51.78
2022-12-27T18:01:43.673Z,51.20
2022-12-27T18:02:45.733Z,51.21
2022-12-27T18:03:48.789Z,51.00
2022-12-27T18:04:55.258Z,51.10
2022-12-27T18:05:57.405Z,51.02
2022-12-27T18:07:03.119Z,50.26
2022-12-27T18:08:08.506Z,50.57
2022-12-27T18:09:38.258Z,50.03
2022-12-27T18:10:41.511Z,50.11
2022-12-27T18:11:43.113Z,49.64
2022-12-27T18:12:49.396Z,50.20
2022-12-27T18:13:54.200Z,49.77
2022-12-27T18:15:01.139Z,49.36
2022-12-27T18:16:15.031Z,49.72
2022-12-27T18:17:28.748Z,49.39
2022-12-27T18:18:34.673Z,49.14
2022-12-27T18:19:36.270Z,49.45
2022-12-27T18:20:39.201Z,49.24
2022-12-27T18:21:54.846Z,49.04
2022-12-27T18:23:02.595Z,49.27
2022-12-27T18:24:23.677Z,49.12
2022-12-27T18:25:27.703Z,49.02
2022-12-27T18:26:39.268Z,49.03
2022-12-27T18:27:41.161Z,49.28
2022-12-27T18:28:43.351Z,49.40
2022-12-27T18:29:46.378Z,49.44
2022-12-27T18:30:50.871Z,49.38
2022-12-27T18:31:56.197Z,49.28
2022-12-27T18:32:59.217Z,49.28
2022-12-27T18:34:15.237Z,49.34
2022-12-27T18:35:24.091Z,49.33
2022-12-27T18:36:29.183Z,49.31
2022-12-27T18:37:35.383Z,49.40
2022-12-27T18:38:43.374Z,49.63
2022-12-27T18:40:04.862Z,49.54
2022-12-27T18:41:10.085Z,49.64
2022-12-27T18:42:37.838Z,49.74
2022-12-27T18:43:45.013Z,49.49
2022-12-27T18:44:54.798Z,49.64
2022-12-27T18:45:57.321Z,49.85
2022-12-27T18:47:02.381Z,49.98
2022-12-27T18:48:12.184Z,49.87
2022-12-27T18:49:43.984Z,49.50
2022-12-27T18:50:51.761Z,49.54
2022-12-27T18:51:55.147Z,49.84
2022-12-27T18:53:03.529Z,49.57
2022-12-27T18:54:21.960Z,49.50
2022-12-27T18:55:28.800Z,49.73
2022-12-27T18:56:33.163Z,49.66
2022-12-27T18:57:36.751Z,49.61
2022-12-27T18:58:38.443Z,49.73
2022-12-27T18:59:40.088Z,49.72
2022-12-27T19:00:51.693Z,49.80
2022-12-27T19:01:55.334Z,49.49
2022-12-27T19:03:18.848Z,49.33
2022-12-27T19:04:22.838Z,49.68
2022-12-27T19:05:28.001Z,49.32
2022-12-27T19:06:32.010Z,49.75
2022-12-27T19:07:34.051Z,49.66
2022-12-27T19:08:39.070Z,49.38
2022-12-27T19:10:01.881Z,49.47
2022-12-27T19:11:05.009Z,49.21
2022-12-27T19:12:21.305Z,49.35
2022-12-27T19:13:29.816Z,49.10
2022-12-27T19:14:41.810Z,49.15
2022-12-27T19:15:44.897Z,49.14
2022-12-27T19:16:59.073Z,49.09
2022-12-27T19:18:04.199Z,49.23
2022-12-27T19:19:18.328Z,49.17
2022-12-27T19:20:29.332Z,49.08
2022-12-27T19:21:35.320Z,49.10
2022-12-27T19:23:03.327Z,49.25
2022-12-27T19:24:23.615Z,48.89
2022-12-27T19:25:27.163Z,48.89
2022-12-27T19:26:32.449Z,48.80
2022-12-27T19:27:34.295Z,48.99
2022-12-27T19:28:36.637Z,48.99
2022-12-27T19:29:51.446Z,48.45
2022-12-27T19:31:18.592Z,48.65
2022-12-27T19:32:28.815Z,49.08
2022-12-27T19:33:34.568Z,48.98
2022-12-27T19:34:44.291Z,48.85
2022-12-27T19:35:46.208Z,49.03
2022-12-27T19:36:49.219Z,49.23
2022-12-27T19:37:50.928Z,49.16
2022-12-27T19:38:53.606Z,49.31
2022-12-27T19:39:55.472Z,48.84
2022-12-27T19:41:03.583Z,48.64
2022-12-27T19:42:08.484Z,48.76
2022-12-27T19:43:13.396Z,48.80
2022-12-27T19:44:15.424Z,49.01
2022-12-27T19:45:18.104Z,49.23
2022-12-27T19:46:19.950Z,49.03
2022-12-27T19:47:21.675Z,49.08
2022-12-27T19:48:23.298Z,48.94
2022-12-27T19:49:42.915Z,49.05
2022-12-27T19:50:51.599Z,49.17
2022-12-27T19:51:55.850Z,49.27
2022-12-27T19:52:58.967Z,49.35
2022-12-27T19:54:00.767Z,48.94
2022-12-27T19:55:07.212Z,49.16
2022-12-27T19:56:09.176Z,49.11
2022-12-27T19:57:12.372Z,48.83
2022-12-27T19:58:27.001Z,48.77
2022-12-27T19:59:28.727Z,49.11
2022-12-27T20:00:30.458Z,48.96
2022-12-27T20:01:32.349Z,49.02
2022-12-27T20:02:34.304Z,48.88
2022-12-27T20:03:36.512Z,48.83
2022-12-27T20:04:38.212Z,49.35
2022-12-27T20:06:13.839Z,49.09
2022-12-27T20:07:02.943Z,49.34
2022-12-27T20:08:06.342Z,48.99
2022-12-27T20:09:15.257Z,48.88
2022-12-27T20:10:17.367Z,49.13
2022-12-27T20:11:23.516Z,48.96
2022-12-27T20:12:25.691Z,48.95
2022-12-27T20:13:28.443Z,49.31
2022-12-27T20:14:30.086Z,49.41
2022-12-27T20:15:31.978Z,49.31
2022-12-27T20:16:34.092Z,49.64
2022-12-27T20:17:41.072Z,49.40
2022-12-27T20:18:46.904Z,49.38
2022-12-27T20:19:48.741Z,49.17
2022-12-27T20:20:51.241Z,49.25
2022-12-27T20:21:52.911Z,49.33
2022-12-27T20:22:54.664Z,49.59
2022-12-27T20:23:56.306Z,49.40
2022-12-27T20:24:57.870Z,49.62
2022-12-27T20:25:59.922Z,49.50
2022-12-27T20:27:01.824Z,49.18
2022-12-27T20:28:03.547Z,49.45
2022-12-27T20:29:05.401Z,49.83
2022-12-27T20:30:07.623Z,50.46
2022-12-27T20:31:12.273Z,50.25
2022-12-27T20:32:13.868Z,49.94
2022-12-27T20:33:16.262Z,50.23
2022-12-27T20:34:18.630Z,50.17
2022-12-27T20:35:20.275Z,49.68
2022-12-27T20:36:22.873Z,50.03
2022-12-27T20:37:25.089Z,50.05
2022-12-27T20:38:26.989Z,50.13
2022-12-27T20:39:28.684Z,49.80
2022-12-27T20:40:30.452Z,49.74
2022-12-27T20:41:32.103Z,49.98
2022-12-27T20:42:34.037Z,50.15
2022-12-27T20:43:36.199Z,50.09
2022-12-27T20:44:40.117Z,50.30
2022-12-27T20:45:41.692Z,50.50
2022-12-27T20:46:43.385Z,50.42
2022-12-27T20:47:45.062Z,50.27
2022-12-27T20:48:47.336Z,50.44
2022-12-27T20:49:48.919Z,50.12
2022-12-27T20:50:51.087Z,50.32
2022-12-27T20:51:53.000Z,50.58
2022-12-27T20:52:54.870Z,50.37
2022-12-27T20:53:58.321Z,50.70
2022-12-27T20:55:00.474Z,50.60
2022-12-27T20:56:04.036Z,50.58
2022-12-27T20:57:05.789Z,50.95
2022-12-27T20:58:07.548Z,51.11
2022-12-27T20:59:09.266Z,50.82
2022-12-27T21:00:12.257Z,50.66
2022-12-27T21:01:16.963Z,50.74
2022-12-27T21:02:19.825Z,50.71
2022-12-27T21:03:21.843Z,50.91
2022-12-27T21:04:23.574Z,51.49
2022-12-27T21:05:25.239Z,51.43
2022-12-27T21:06:28.477Z,51.03
2022-12-27T21:07:30.111Z,50.81
2022-12-27T21:08:40.367Z,51.17
2022-12-27T21:09:46.507Z,51.19
2022-12-27T21:10:48.705Z,51.28
2022-12-27T21:11:53.332Z,51.14
2022-12-27T21:12:54.959Z,51.51
2022-12-27T21:13:57.383Z,51.23
2022-12-27T21:14:59.189Z,51.01
2022-12-27T21:16:00.982Z,51.92
2022-12-27T21:17:03.163Z,51.41
2022-12-27T21:18:05.692Z,51.19
2022-12-27T21:19:07.756Z,51.16
2022-12-27T21:20:11.236Z,51.35
2022-12-27T21:21:19.307Z,51.17
2022-12-27T21:22:21.384Z,51.50
2022-12-27T21:23:23.108Z,51.70
2022-12-27T21:24:24.752Z,51.63
2022-12-27T21:25:26.678Z,51.79
2022-12-27T21:26:30.727Z,51.80
2022-12-27T21:27:32.508Z,51.64
2022-12-27T21:28:34.837Z,51.62
2022-12-27T21:29:36.601Z,51.63
2022-12-27T21:30:38.262Z,52.14
2022-12-27T21:31:40.161Z,51.64
2022-12-27T21:32:41.693Z,52.19
2022-12-27T21:33:43.792Z,52.07
2022-12-27T21:34:45.766Z,52.02
2022-12-27T21:35:56.176Z,51.69
2022-12-27T21:36:57.831Z,51.96
2022-12-27T21:37:59.627Z,52.05
2022-12-27T21:39:02.156Z,52.14
2022-12-27T21:40:04.097Z,52.27
2022-12-27T21:41:09.702Z,52.14
2022-12-27T21:42:12.511Z,52.05
2022-12-27T21:43:14.367Z,52.04
2022-12-27T21:44:16.646Z,51.83
2022-12-27T21:45:18.604Z,52.55
2022-12-27T21:46:22.208Z,52.18
2022-12-27T21:47:24.129Z,52.20
2022-12-27T21:48:25.932Z,51.97
2022-12-27T21:49:27.760Z,52.19
2022-12-27T21:50:35.384Z,52.37
2022-12-27T21:51:40.527Z,52.12
2022-12-27T21:52:42.426Z,52.35
2022-12-27T21:53:44.889Z,52.22
2022-12-27T21:54:46.715Z,52.16
2022-12-27T21:55:48.542Z,52.46
2022-12-27T21:56:51.114Z,52.56
2022-12-27T21:57:52.695Z,52.74
2022-12-27T21:58:58.309Z,52.13
2022-12-27T22:00:00.069Z,52.40
2022-12-27T22:01:09.379Z,52.16
2022-12-27T22:02:11.332Z,52.56
2022-12-27T22:03:13.555Z,52.40
2022-12-27T22:04:15.373Z,52.30
2022-12-27T22:05:17.490Z,52.00
2022-12-27T22:06:26.544Z,52.26
2022-12-27T22:07:28.397Z,52.50
2022-12-27T22:08:31.165Z,52.49
2022-12-27T22:09:32.702Z,52.60
2022-12-27T22:10:34.264Z,52.86
2022-12-27T22:11:37.700Z,52.69
2022-12-27T22:12:39.567Z,52.63
2022-12-27T22:13:42.494Z,52.57
2022-12-27T22:14:44.523Z,52.85
2022-12-27T22:15:57.685Z,52.66
2022-12-27T22:17:00.585Z,52.77
2022-12-27T22:18:02.259Z,52.98
2022-12-27T22:19:12.192Z,52.81
2022-12-27T22:20:13.843Z,52.59
2022-12-27T22:21:18.520Z,52.91
2022-12-27T22:22:20.286Z,52.50
2022-12-27T22:23:21.879Z,52.84
2022-12-27T22:24:23.596Z,52.85
2022-12-27T22:25:25.311Z,52.93
2022-12-27T22:26:39.180Z,53.07
2022-12-27T22:27:40.849Z,52.72
2022-12-27T22:28:42.934Z,52.90
2022-12-27T22:29:44.688Z,52.81
2022-12-27T22:30:46.693Z,52.63
2022-12-27T22:31:48.310Z,53.02
2022-12-27T22:32:50.099Z,53.17
2022-12-27T22:33:52.378Z,52.82
2022-12-27T22:34:54.085Z,53.24
2022-12-27T22:36:04.922Z,53.01
2022-12-27T22:37:06.555Z,53.03
2022-12-27T22:38:08.159Z,52.97
2022-12-27T22:39:09.984Z,52.95
2022-12-27T22:40:26.959Z,52.84
2022-12-27T22:41:35.293Z,52.82
2022-12-27T22:42:37.170Z,52.84
2022-12-27T22:43:40.346Z,52.83
2022-12-27T22:44:43.746Z,53.32
2022-12-27T22:45:50.316Z,52.98
2022-12-27T22:47:25.064Z,53.09
2022-12-27T22:48:20.750Z,53.17
2022-12-27T22:49:22.475Z,53.16
2022-12-27T22:50:24.096Z,53.06
2022-12-27T22:51:29.283Z,53.24
2022-12-27T22:52:30.986Z,53.03
2022-12-27T22:53:32.877Z,53.17
2022-12-27T22:55:05.114Z,53.33
2022-12-27T22:55:56.655Z,53.19
2022-12-27T22:56:58.310Z,53.21
2022-12-27T22:58:00.288Z,53.41
2022-12-27T22:59:05.509Z,52.97
2022-12-27T23:00:12.466Z,53.24
2022-12-27T23:01:17.199Z,52.98
2022-12-27T23:02:19.062Z,53.22
2022-12-27T23:03:20.785Z,53.28
2022-12-27T23:04:22.593Z,53.11
2022-12-27T23:05:24.307Z,53.16
2022-12-27T23:06:27.657Z,53.12
2022-12-27T23:08:04.721Z,53.42
2022-12-27T23:08:51.545Z,53.44
2022-12-27T23:09:53.221Z,53.40
2022-12-27T23:11:00.809Z,53.40
2022-12-27T23:12:02.550Z,53.71
2022-12-27T23:13:04.297Z,53.08
2022-12-27T23:14:11.876Z,53.20
2022-12-27T23:15:13.669Z,53.13
2022-12-27T23:16:15.685Z,53.25
2022-12-27T23:17:17.445Z,53.53
2022-12-27T23:18:19.082Z,53.56
2022-12-27T23:19:24.688Z,53.69
2022-12-27T23:20:26.712Z,53.62
2022-12-27T23:21:28.575Z,53.49
2022-12-27T23:22:30.168Z,53.59
2022-12-27T23:23:34.305Z,53.70
2022-12-27T23:24:36.072Z,53.28
2022-12-27T23:25:38.004Z,53.54
2022-12-27T23:26:40.151Z,53.46
2022-12-27T23:27:41.733Z,53.57
2022-12-27T23:28:45.121Z,53.81
2022-12-27T23:29:46.995Z,53.49
2022-12-27T23:30:50.178Z,53.50
2022-12-27T23:31:55.275Z,53.29
2022-12-27T23:32:57.656Z,53.83
2022-12-27T23:33:59.775Z,53.53
2022-12-27T23:35:01.433Z,53.73
2022-12-27T23:36:03.448Z,53.51
2022-12-27T23:37:05.424Z,53.37
2022-12-27T23:38:07.145Z,53.69
2022-12-27T23:39:08.907Z,53.53
2022-12-27T23:40:11.125Z,53.70
2022-12-27T23:41:24.862Z,53.61
2022-12-27T23:42:26.602Z,54.03
2022-12-27T23:43:51.568Z,53.44
2022-12-27T23:44:54.328Z,53.87
2022-12-27T23:45:55.986Z,53.39
2022-12-27T23:46:57.605Z,53.95
2022-12-27T23:47:59.291Z,54.02
2022-12-27T23:49:02.923Z,53.79
2022-12-27T23:50:06.028Z,53.60
2022-12-27T23:51:08.227Z,53.73
2022-12-27T23:52:09.996Z,53.81
2022-12-27T23:53:11.666Z,53.29
2022-12-27T23:54:13.247Z,53.76
2022-12-27T23:55:14.999Z,53.36
2022-12-27T23:56:19.708Z,53.96
2022-12-27T23:57:22.692Z,53.58
2022-12-27T23:58:24.801Z,53.89
2022-12-27T23:59:27.948Z,53.71
